Ernest A. Love Field
KPRC : now visible

Airfield :











YOU CAN JOIN US ON...

 
LOGIN :

Register | Disclaimer

   EN    FR    IT 

 









Legend :    VFR   Marginal VFR   IFR   Intensive IFR   Very Intensive IFR
Visi :
Ceiling :
>= 8 km
>= 3000ft
5 to 8 km
1000 to 3000 ft
1500m to 5 km
500 to 1000 ft
800 to 1500m
200 to 500 ft
< 800m
< 200 ft
Symbols :   Thunderstorms  Fog  Heavy snow  Heavy precipitations  Wind > 20 kt






- Airport Elevation : 5045 ft
- IATA code : PRC


KPRC - Ernest A. Love Field

CURRENT METAR :
  • 152253Z 07005KT 10SM CLR 25/M07 A3015 RMK AO2 SLP147 T02501067

EXPIRED METARs :
  • 152153Z 10007KT 10SM CLR 24/M05 A3015 RMK AO2 SLP150 T02441050
  • 152053Z 14008KT 10SM CLR 24/M04 A3016 RMK AO2 SLP154 T02391044 58018

TAF KPRC
Valid from the 15 at 18:00 until the 16 at 18:00 UTC


151720Z 1518/1618 VRB05KT P6SM SKC
FM160400 20005KT P6SM SKC
FM161200 VRB04KT P6SM SKC



MET'MAP, your aeronautical weather chart ! - Copyright ORBIFLY December 2007 - Disclaimer

ORBIFLY MET'MAP TEAM :

Programming & Development : Alexandra Zaïnal
Concept & Development : Baudouin d'Aumeries
Co-Development & Prog : Marc-Olivier Méhu
Technical & hardware support : Manuel Goepfert

Contact : metmap@orbifly.com




SOURCES & CREDITS :

   NOAA       Earth
Advisory